createdAt,value
2019-05-05T00:02:06.317Z,3.67
2019-05-05T00:04:54.678Z,3.33
2019-05-05T00:07:28.321Z,3.53
2019-05-05T00:09:57.832Z,3.10
2019-05-05T00:13:01.381Z,3.47
2019-05-05T00:16:04.930Z,3.70
2019-05-05T00:18:34.684Z,3.33
2019-05-05T00:21:04.601Z,3.57
2019-05-05T00:23:34.620Z,3.43
2019-05-05T00:26:04.495Z,3.80
2019-05-05T00:28:35.408Z,3.57
2019-05-05T00:31:05.496Z,3.50
2019-05-05T00:33:34.902Z,3.50
2019-05-05T00:36:07.206Z,3.00
2019-05-05T00:38:35.633Z,3.27
2019-05-05T00:41:05.495Z,3.20
2019-05-05T00:43:35.229Z,3.80
2019-05-05T00:46:10.214Z,3.40
2019-05-05T00:48:44.964Z,3.60
2019-05-05T00:51:15.171Z,3.17
2019-05-05T00:53:44.976Z,3.03
2019-05-05T00:56:14.580Z,3.10
2019-05-05T00:58:49.369Z,3.27
2019-05-05T01:01:37.038Z,2.80
2019-05-05T01:04:09.288Z,3.90
2019-05-05T01:06:38.773Z,2.73
2019-05-05T01:09:14.767Z,2.77
2019-05-05T01:11:44.645Z,2.53
2019-05-05T01:14:14.505Z,2.80
2019-05-05T01:16:45.601Z,3.03
2019-05-05T01:19:15.147Z,3.03
2019-05-05T01:21:45.392Z,2.77
2019-05-05T01:24:15.152Z,2.67
2019-05-05T01:26:44.743Z,2.87
2019-05-05T01:29:15.056Z,3.00
2019-05-05T01:31:45.259Z,3.00
2019-05-05T01:34:24.543Z,2.90
2019-05-05T01:37:00.495Z,2.80
2019-05-05T01:39:47.301Z,2.80
2019-05-05T01:42:16.970Z,2.97
2019-05-05T01:44:46.346Z,2.63
2019-05-05T01:47:15.793Z,2.50
2019-05-05T01:49:45.540Z,2.80
2019-05-05T01:52:15.186Z,3.00
2019-05-05T01:54:44.807Z,2.40
2019-05-05T01:57:14.934Z,2.47
2019-05-05T01:59:45.177Z,2.57
2019-05-05T02:02:14.831Z,2.90
2019-05-05T02:04:44.881Z,2.80
2019-05-05T02:07:14.885Z,3.20
2019-05-05T02:09:45.102Z,3.37
2019-05-05T02:12:15.823Z,2.63
2019-05-05T02:14:45.617Z,2.93
2019-05-05T02:17:15.100Z,3.23
2019-05-05T02:19:44.554Z,2.80
2019-05-05T02:22:14.797Z,3.00
2019-05-05T02:24:44.662Z,3.27
2019-05-05T02:27:15.090Z,3.70
2019-05-05T02:30:06.205Z,3.40
2019-05-05T02:32:41.542Z,3.57
2019-05-05T02:35:16.249Z,3.30
2019-05-05T02:37:46.607Z,3.37
2019-05-05T02:40:16.999Z,3.30
2019-05-05T02:42:48.156Z,4.00
2019-05-05T02:45:36.982Z,3.73
2019-05-05T02:48:15.135Z,3.33
2019-05-05T02:51:00.276Z,3.27
2019-05-05T02:53:29.989Z,3.67
2019-05-05T02:56:04.942Z,3.20
2019-05-05T02:58:38.229Z,3.07
2019-05-05T03:01:17.833Z,3.23
2019-05-05T03:03:48.957Z,2.70
2019-05-05T03:06:18.322Z,2.90
2019-05-05T03:08:49.611Z,2.90
2019-05-05T03:11:19.499Z,3.70
2019-05-05T03:13:53.550Z,2.80
2019-05-05T03:16:24.878Z,2.50
2019-05-05T03:18:57.310Z,3.17
2019-05-05T03:21:26.895Z,3.10
2019-05-05T03:23:56.659Z,3.13
2019-05-05T03:26:26.365Z,3.20
2019-05-05T03:28:58.580Z,2.83
2019-05-05T03:31:28.500Z,2.97
2019-05-05T03:33:58.163Z,3.13
2019-05-05T03:36:28.422Z,3.70
2019-05-05T03:38:58.009Z,3.40
2019-05-05T03:41:48.324Z,3.10
2019-05-05T03:44:24.144Z,3.30
2019-05-05T03:46:54.348Z,3.03
2019-05-05T03:49:25.082Z,3.40
2019-05-05T03:51:55.012Z,3.23
2019-05-05T03:54:24.443Z,3.20
2019-05-05T03:57:09.676Z,3.27
2019-05-05T03:59:44.344Z,3.17
2019-05-05T04:02:28.730Z,3.70
2019-05-05T04:05:00.679Z,3.00
2019-05-05T04:07:30.221Z,3.10
2019-05-05T04:09:59.687Z,3.40
2019-05-05T04:12:29.063Z,3.40
2019-05-05T04:14:59.621Z,3.23
2019-05-05T04:17:53.759Z,3.07
2019-05-05T04:20:34.604Z,3.00
2019-05-05T04:23:04.030Z,3.57
2019-05-05T04:25:34.944Z,3.63
2019-05-05T04:28:04.897Z,3.33
2019-05-05T04:30:34.407Z,3.77
2019-05-05T04:33:05.058Z,3.67
2019-05-05T04:35:34.917Z,3.97
2019-05-05T04:38:05.393Z,3.97
2019-05-05T04:40:34.849Z,3.80
2019-05-05T04:43:04.336Z,3.70
2019-05-05T04:45:34.676Z,4.13
2019-05-05T04:48:13.658Z,4.17
2019-05-05T04:50:55.194Z,5.00
2019-05-05T04:53:29.895Z,4.30
2019-05-05T04:55:59.366Z,4.63
2019-05-05T04:58:28.847Z,4.77
2019-05-05T05:00:58.302Z,5.03
2019-05-05T05:03:46.751Z,5.07
2019-05-05T05:06:19.087Z,5.00
2019-05-05T05:08:48.474Z,6.00
2019-05-05T05:11:17.960Z,6.03
2019-05-05T05:13:47.443Z,6.60
2019-05-05T05:16:16.883Z,6.40
2019-05-05T05:18:46.299Z,6.43
2019-05-05T05:21:15.799Z,6.57
2019-05-05T05:23:45.303Z,6.33
2019-05-05T05:26:14.844Z,6.97
2019-05-05T05:28:44.867Z,5.87
2019-05-05T05:31:14.526Z,7.03
2019-05-05T05:33:44.076Z,5.40
2019-05-05T05:36:14.434Z,5.73
2019-05-05T05:38:45.815Z,5.80
2019-05-05T05:41:17.382Z,5.43
2019-05-05T05:44:03.617Z,7.70
2019-05-05T05:46:54.467Z,9.03
2019-05-05T05:49:34.613Z,4.53
2019-05-05T05:52:13.309Z,5.13
2019-05-05T05:54:35.665Z,5.70
2019-05-05T05:57:05.206Z,6.47
2019-05-05T05:59:34.759Z,6.70
2019-05-05T06:02:11.813Z,4.63
2019-05-05T06:04:36.993Z,6.50
2019-05-05T06:07:06.536Z,5.17
2019-05-05T06:09:35.965Z,5.33
2019-05-05T06:12:05.451Z,5.23
2019-05-05T06:14:35.012Z,5.20
2019-05-05T06:17:04.609Z,5.63
2019-05-05T06:19:34.127Z,7.13
2019-05-05T06:22:04.125Z,6.73
2019-05-05T06:24:34.610Z,4.97
2019-05-05T06:27:04.221Z,4.70
2019-05-05T06:29:34.527Z,5.33
2019-05-05T06:32:04.238Z,4.67
2019-05-05T06:34:33.969Z,5.50
2019-05-05T06:37:04.268Z,5.27
2019-05-05T06:39:33.932Z,5.67
2019-05-05T06:42:13.620Z,5.80
2019-05-05T06:44:50.869Z,4.93
2019-05-05T06:47:23.688Z,6.53
2019-05-05T06:49:54.167Z,5.60
2019-05-05T06:52:24.840Z,5.57
2019-05-05T06:54:54.411Z,6.00
2019-05-05T06:57:24.157Z,5.47
2019-05-05T06:59:54.371Z,5.63
2019-05-05T07:02:24.454Z,6.13
2019-05-05T07:04:54.645Z,5.53
2019-05-05T07:07:24.339Z,6.17
2019-05-05T07:09:54.358Z,6.80
2019-05-05T07:12:24.261Z,6.97
2019-05-05T07:14:53.959Z,6.27
2019-05-05T07:17:24.519Z,6.57
2019-05-05T07:19:54.474Z,5.63
2019-05-05T07:22:24.406Z,5.63
2019-05-05T07:24:54.291Z,5.30
2019-05-05T07:27:24.450Z,4.37
2019-05-05T07:29:54.243Z,4.83
2019-05-05T07:32:24.665Z,4.57
2019-05-05T07:35:18.987Z,4.37
2019-05-05T07:37:48.541Z,4.67
2019-05-05T07:40:17.915Z,4.57
2019-05-05T07:42:47.371Z,4.50
2019-05-05T07:45:22.496Z,4.03
2019-05-05T07:47:48.087Z,4.37
2019-05-05T07:50:28.614Z,4.70
2019-05-05T07:52:49.569Z,3.83
2019-05-05T07:55:19.092Z,4.37
2019-05-05T07:57:48.615Z,4.83
2019-05-05T08:00:18.232Z,4.60
2019-05-05T08:02:47.746Z,4.20
2019-05-05T08:05:18.346Z,4.53
2019-05-05T08:07:47.802Z,5.50
2019-05-05T08:10:17.565Z,4.80
2019-05-05T08:12:47.001Z,4.73
2019-05-05T08:15:18.281Z,5.00
2019-05-05T08:18:13.893Z,5.17
2019-05-05T08:20:46.319Z,4.70
2019-05-05T08:23:35.367Z,4.60
2019-05-05T08:26:16.383Z,4.73
2019-05-05T08:29:16.893Z,4.57
2019-05-05T08:31:50.460Z,4.73
2019-05-05T08:34:19.884Z,5.87
2019-05-05T08:36:49.276Z,5.30
2019-05-05T08:39:21.437Z,4.70
2019-05-05T08:41:50.098Z,4.83
2019-05-05T08:44:19.582Z,5.40
2019-05-05T08:46:49.045Z,5.87
2019-05-05T08:49:18.488Z,5.23
2019-05-05T08:51:47.983Z,4.73
2019-05-05T08:54:17.474Z,4.57
2019-05-05T08:56:46.845Z,4.67
2019-05-05T08:59:16.363Z,4.57
2019-05-05T09:01:45.936Z,4.77
2019-05-05T09:04:15.366Z,4.93
2019-05-05T09:06:44.773Z,4.60
2019-05-05T09:09:14.590Z,5.07
2019-05-05T09:11:44.147Z,4.27
2019-05-05T09:14:14.919Z,4.70
2019-05-05T09:16:44.966Z,4.63
2019-05-05T09:19:18.253Z,3.83
2019-05-05T09:21:47.742Z,4.53
2019-05-05T09:24:45.391Z,4.20
2019-05-05T09:27:34.795Z,3.90
2019-05-05T09:30:05.019Z,4.27
2019-05-05T09:32:34.571Z,4.40
2019-05-05T09:35:04.866Z,3.73
2019-05-05T09:37:34.677Z,4.10
2019-05-05T09:40:04.591Z,4.37
2019-05-05T09:42:34.285Z,4.20
2019-05-05T09:45:04.816Z,3.58
2019-05-05T09:47:34.528Z,3.83
2019-05-05T09:50:04.218Z,3.98
2019-05-05T09:52:33.817Z,3.65
2019-05-05T09:55:03.948Z,3.50
2019-05-05T09:57:34.362Z,4.55
2019-05-05T10:00:10.124Z,3.90
2019-05-05T10:02:39.518Z,4.15
2019-05-05T10:05:09.292Z,3.50
2019-05-05T10:07:38.836Z,8.18
2019-05-05T10:10:08.480Z,5.50
2019-05-05T10:12:37.931Z,5.20
2019-05-05T10:15:08.801Z,6.75
2019-05-05T10:17:38.198Z,4.45
2019-05-05T10:20:07.750Z,4.42
2019-05-05T10:22:37.330Z,4.30
2019-05-05T10:25:24.797Z,3.80
2019-05-05T10:27:54.687Z,3.92
2019-05-05T10:30:24.150Z,4.87
2019-05-05T10:32:54.506Z,3.95
2019-05-05T10:35:24.869Z,4.58
2019-05-05T10:37:55.326Z,3.60
2019-05-05T10:40:28.680Z,3.80
2019-05-05T10:42:58.151Z,3.70
2019-05-05T10:45:27.651Z,3.83
2019-05-05T10:47:57.223Z,3.83
2019-05-05T10:50:29.537Z,3.67
2019-05-05T10:52:58.935Z,3.15
2019-05-05T10:55:28.457Z,3.15
2019-05-05T10:57:58.062Z,3.40
2019-05-05T11:00:48.602Z,3.27
2019-05-05T11:03:18.114Z,3.00
2019-05-05T11:05:47.817Z,3.33
2019-05-05T11:08:17.854Z,3.95
2019-05-05T11:10:47.360Z,3.92
2019-05-05T11:13:17.845Z,3.92
2019-05-05T11:15:47.383Z,3.83
2019-05-05T11:18:17.075Z,3.90
2019-05-05T11:20:46.474Z,3.50
2019-05-05T11:23:15.916Z,3.87
2019-05-05T11:25:45.524Z,3.45
2019-05-05T11:28:15.028Z,3.80
2019-05-05T11:30:46.172Z,3.15
2019-05-05T11:33:36.793Z,3.52
2019-05-05T11:36:21.264Z,3.55
2019-05-05T11:38:50.679Z,3.50
2019-05-05T11:41:20.225Z,4.15
2019-05-05T11:43:49.812Z,3.77
2019-05-05T11:46:19.283Z,3.15
2019-05-05T11:48:48.666Z,3.27
2019-05-05T11:51:18.207Z,3.80
2019-05-05T11:53:47.713Z,3.33
2019-05-05T11:56:17.093Z,3.50
2019-05-05T11:58:46.508Z,3.52
2019-05-05T12:01:16.059Z,3.25
2019-05-05T12:03:45.583Z,3.30
2019-05-05T12:06:15.113Z,3.65
2019-05-05T12:08:45.915Z,3.40
2019-05-05T12:11:15.944Z,3.80
2019-05-05T12:13:45.512Z,3.25
2019-05-05T12:16:29.983Z,3.30
2019-05-05T12:19:01.046Z,3.90
2019-05-05T12:21:30.434Z,3.55
2019-05-05T12:24:03.875Z,5.00
2019-05-05T12:26:44.781Z,3.08
2019-05-05T12:29:18.646Z,3.58
2019-05-05T12:31:50.594Z,2.50
2019-05-05T12:34:19.972Z,3.25
2019-05-05T12:36:49.469Z,5.50
2019-05-05T12:39:19.008Z,3.33
2019-05-05T12:41:48.385Z,3.67
2019-05-05T12:44:26.157Z,3.67
2019-05-05T12:47:20.563Z,3.30
2019-05-05T12:49:50.088Z,3.08
2019-05-05T12:52:19.469Z,3.10
2019-05-05T12:54:48.964Z,3.37
2019-05-05T12:57:18.401Z,3.05
2019-05-05T12:59:47.792Z,2.52
2019-05-05T13:02:17.362Z,3.27
2019-05-05T13:04:48.255Z,2.25
2019-05-05T13:07:17.751Z,2.72
2019-05-05T13:09:47.172Z,2.62
2019-05-05T13:12:16.697Z,2.25
2019-05-05T13:14:46.276Z,1.95
2019-05-05T13:17:15.667Z,2.83
2019-05-05T13:20:04.019Z,2.62
2019-05-05T13:23:04.808Z,3.12
2019-05-05T13:25:59.180Z,2.42
2019-05-05T13:28:27.473Z,2.65
2019-05-05T13:30:56.894Z,2.58
2019-05-05T13:33:26.422Z,2.47
2019-05-05T13:35:55.805Z,2.83
2019-05-05T13:38:25.291Z,2.85
2019-05-05T13:40:54.824Z,2.85
2019-05-05T13:43:24.200Z,3.10
2019-05-05T13:46:05.643Z,3.10
2019-05-05T13:48:35.149Z,2.80
2019-05-05T13:51:06.114Z,2.62
2019-05-05T13:53:35.553Z,2.87
2019-05-05T13:56:11.898Z,2.50
2019-05-05T13:58:36.551Z,3.27
2019-05-05T14:01:06.099Z,3.27
2019-05-05T14:03:35.496Z,3.50
2019-05-05T14:06:04.969Z,2.85
2019-05-05T14:08:36.410Z,3.47
2019-05-05T14:11:06.183Z,2.67
2019-05-05T14:13:35.582Z,3.22
2019-05-05T14:16:05.039Z,3.50
2019-05-05T14:18:34.554Z,3.33
2019-05-05T14:21:04.065Z,3.27
2019-05-05T14:23:54.659Z,3.45
2019-05-05T14:26:27.998Z,3.47
2019-05-05T14:28:55.759Z,3.17
2019-05-05T14:31:29.884Z,3.08
2019-05-05T14:34:01.158Z,3.15
2019-05-05T14:36:49.499Z,3.87
2019-05-05T14:39:19.947Z,3.45
2019-05-05T14:41:49.445Z,3.50
2019-05-05T14:44:18.991Z,3.45
2019-05-05T14:46:48.392Z,3.40
2019-05-05T14:49:17.923Z,3.40
2019-05-05T14:51:47.455Z,3.58
2019-05-05T14:54:16.928Z,3.33
2019-05-05T14:56:46.414Z,3.77
2019-05-05T14:59:15.825Z,3.20
2019-05-05T15:01:45.222Z,3.42
2019-05-05T15:04:16.480Z,3.25
2019-05-05T15:06:59.054Z,2.98
2019-05-05T15:09:47.371Z,3.90
2019-05-05T15:12:23.741Z,2.90
2019-05-05T15:14:54.624Z,2.92
2019-05-05T15:17:24.728Z,3.02
2019-05-05T15:19:54.288Z,3.17
2019-05-05T15:22:24.039Z,2.63
2019-05-05T15:24:53.780Z,3.00
2019-05-05T15:27:24.226Z,3.05
2019-05-05T15:29:54.240Z,3.33
2019-05-05T15:32:24.243Z,3.33
2019-05-05T15:34:54.599Z,3.65
2019-05-05T15:37:24.264Z,3.60
2019-05-05T15:39:53.862Z,4.13
2019-05-05T15:42:23.411Z,2.97
2019-05-05T15:44:54.387Z,3.25
2019-05-05T15:47:25.602Z,3.17
2019-05-05T15:49:55.131Z,3.10
2019-05-05T15:52:24.617Z,3.27
2019-05-05T15:54:54.092Z,3.17
2019-05-05T15:57:24.144Z,2.30
2019-05-05T15:59:54.253Z,3.03
2019-05-05T16:02:24.120Z,3.17
2019-05-05T16:04:54.104Z,3.50
2019-05-05T16:07:24.251Z,3.10
2019-05-05T16:09:53.934Z,3.50
2019-05-05T16:12:33.400Z,2.80
2019-05-05T16:15:04.540Z,3.13
2019-05-05T16:17:48.663Z,2.83
2019-05-05T16:20:31.156Z,2.50
2019-05-05T16:23:11.025Z,2.37
2019-05-05T16:25:41.773Z,3.27
2019-05-05T16:28:11.419Z,3.30
2019-05-05T16:30:40.854Z,3.73
2019-05-05T16:33:10.250Z,2.80
2019-05-05T16:35:39.766Z,2.93
2019-05-05T16:38:14.740Z,3.37
2019-05-05T16:40:44.441Z,4.03
2019-05-05T16:43:16.726Z,3.30
2019-05-05T16:45:45.551Z,3.40
2019-05-05T16:48:15.064Z,2.83
2019-05-05T16:50:44.677Z,2.80
2019-05-05T16:53:34.308Z,3.20
2019-05-05T16:56:04.507Z,3.00
2019-05-05T16:58:34.079Z,2.83
2019-05-05T17:01:03.957Z,2.83
2019-05-05T17:03:33.427Z,3.50
2019-05-05T17:06:03.740Z,2.87
2019-05-05T17:08:33.862Z,3.17
2019-05-05T17:11:03.781Z,3.33
2019-05-05T17:13:41.588Z,3.60
2019-05-05T17:16:22.730Z,3.20
2019-05-05T17:19:04.438Z,3.10
2019-05-05T17:21:53.620Z,3.10
2019-05-05T17:24:23.939Z,4.03
2019-05-05T17:26:54.896Z,3.47
2019-05-05T17:29:24.635Z,3.30
2019-05-05T17:31:54.292Z,2.83
2019-05-05T17:34:24.667Z,3.27
2019-05-05T17:36:54.252Z,3.37
2019-05-05T17:39:25.994Z,3.43
2019-05-05T17:42:26.570Z,4.43
2019-05-05T17:45:26.590Z,3.30
2019-05-05T17:48:05.543Z,3.93
2019-05-05T17:50:53.577Z,3.90
2019-05-05T17:53:37.706Z,3.00
2019-05-05T17:56:08.914Z,4.37
2019-05-05T17:58:38.429Z,3.70
2019-05-05T18:01:08.434Z,4.07
2019-05-05T18:03:37.912Z,3.20
2019-05-05T18:06:24.729Z,4.10
2019-05-05T18:08:59.645Z,3.20
2019-05-05T18:11:38.466Z,3.13
2019-05-05T18:14:14.568Z,3.33
2019-05-05T18:16:45.368Z,3.63
2019-05-05T18:19:14.885Z,5.00
2019-05-05T18:21:44.461Z,4.47
2019-05-05T18:24:13.999Z,4.10
2019-05-05T18:26:43.675Z,3.33
2019-05-05T18:29:14.572Z,4.63
2019-05-05T18:31:44.008Z,4.33
2019-05-05T18:34:13.589Z,3.60
2019-05-05T18:36:44.587Z,3.60
2019-05-05T18:39:14.287Z,2.80
2019-05-05T18:41:49.313Z,3.50
2019-05-05T18:44:24.189Z,3.23
2019-05-05T18:47:17.496Z,3.03
2019-05-05T18:49:44.714Z,2.90
2019-05-05T18:52:14.226Z,3.57
2019-05-05T18:54:43.893Z,3.60
2019-05-05T18:57:13.459Z,3.57
2019-05-05T18:59:44.787Z,3.73
2019-05-05T19:02:48.318Z,3.97
2019-05-05T19:05:28.245Z,4.53
2019-05-05T19:08:05.517Z,4.23
2019-05-05T19:10:35.045Z,4.83
2019-05-05T19:13:04.543Z,3.43
2019-05-05T19:15:40.748Z,4.07
2019-05-05T19:18:10.253Z,3.90
2019-05-05T19:20:46.585Z,3.97
2019-05-05T19:23:16.428Z,3.67
2019-05-05T19:25:45.837Z,3.50
2019-05-05T19:28:15.381Z,3.60
2019-05-05T19:30:44.882Z,4.00
2019-05-05T19:33:15.488Z,3.50
2019-05-05T19:35:47.305Z,3.30
2019-05-05T19:38:16.259Z,3.60
2019-05-05T19:40:45.806Z,3.50
2019-05-05T19:43:15.388Z,3.40
2019-05-05T19:45:44.959Z,3.03
2019-05-05T19:48:14.978Z,3.87
2019-05-05T19:50:51.157Z,3.30
2019-05-05T19:53:24.908Z,4.03
2019-05-05T19:55:55.752Z,3.57
2019-05-05T19:58:25.327Z,3.63
2019-05-05T20:00:57.352Z,3.70
2019-05-05T20:03:27.140Z,4.07
2019-05-05T20:05:56.690Z,3.70
2019-05-05T20:08:39.854Z,3.57
2019-05-05T20:10:57.351Z,3.13
2019-05-05T20:13:26.914Z,4.17
2019-05-05T20:16:05.728Z,4.77
2019-05-05T20:18:35.112Z,4.57
2019-05-05T20:21:07.209Z,3.67
2019-05-05T20:23:35.943Z,3.67
2019-05-05T20:26:05.794Z,3.53
2019-05-05T20:28:35.299Z,4.13
2019-05-05T20:31:05.047Z,4.07
2019-05-05T20:33:40.590Z,3.23
2019-05-05T20:36:14.489Z,4.10
2019-05-05T20:38:49.788Z,3.60
2019-05-05T20:41:20.505Z,3.10
2019-05-05T20:43:50.059Z,3.37
2019-05-05T20:46:19.798Z,3.03
2019-05-05T20:48:49.358Z,2.80
2019-05-05T20:51:18.777Z,3.07
2019-05-05T20:53:49.173Z,2.80
2019-05-05T20:56:19.043Z,2.73
2019-05-05T20:58:48.549Z,2.70
2019-05-05T21:01:17.955Z,2.77
2019-05-05T21:03:47.515Z,2.43
2019-05-05T21:06:16.991Z,2.37
2019-05-05T21:08:46.460Z,3.17
2019-05-05T21:11:16.030Z,2.53
2019-05-05T21:13:45.535Z,2.70
2019-05-05T21:16:14.992Z,2.70
2019-05-05T21:18:44.425Z,2.97
2019-05-05T21:21:19.554Z,3.47
2019-05-05T21:23:54.601Z,3.20
2019-05-05T21:26:46.287Z,3.47
2019-05-05T21:29:16.853Z,3.20
2019-05-05T21:31:46.520Z,3.40
2019-05-05T21:34:16.026Z,3.37
2019-05-05T21:36:45.455Z,3.57
2019-05-05T21:39:15.076Z,3.53
2019-05-05T21:41:44.631Z,3.20
2019-05-05T21:44:14.615Z,3.30
2019-05-05T21:46:44.383Z,4.33
2019-05-05T21:49:13.990Z,3.57
2019-05-05T21:52:11.413Z,3.70
2019-05-05T21:54:48.120Z,3.37
2019-05-05T21:57:44.061Z,3.40
2019-05-05T22:00:34.672Z,3.07
2019-05-05T22:03:04.573Z,3.20
2019-05-05T22:05:34.090Z,3.33
2019-05-05T22:08:04.746Z,2.87
2019-05-05T22:10:34.848Z,3.00
2019-05-05T22:13:04.941Z,3.33
2019-05-05T22:15:35.767Z,3.80
2019-05-05T22:18:05.727Z,2.03
2019-05-05T22:20:40.864Z,2.20
2019-05-05T22:23:10.295Z,2.70
2019-05-05T22:25:39.804Z,2.73
2019-05-05T22:28:09.205Z,2.50
2019-05-05T22:30:38.653Z,2.40
2019-05-05T22:33:08.151Z,1.90
2019-05-05T22:35:37.669Z,2.47
2019-05-05T22:38:07.195Z,2.20
2019-05-05T22:40:36.591Z,2.83
2019-05-05T22:43:09.464Z,2.10
2019-05-05T22:45:39.054Z,2.13
2019-05-05T22:51:04.524Z,2.13
2019-05-05T22:53:37.158Z,2.50
2019-05-05T22:56:06.673Z,2.23
2019-05-05T22:58:36.101Z,2.00
2019-05-05T23:01:05.894Z,2.50
2019-05-05T23:03:51.023Z,2.23
2019-05-05T23:06:24.190Z,2.70
2019-05-05T23:08:54.581Z,4.10
2019-05-05T23:11:24.390Z,3.40
2019-05-05T23:13:56.274Z,4.37
2019-05-05T23:16:34.038Z,4.90
2019-05-05T23:19:04.567Z,4.10
2019-05-05T23:21:49.150Z,4.10
2019-05-05T23:24:26.396Z,3.80
2019-05-05T23:26:55.876Z,3.30
2019-05-05T23:29:26.636Z,3.47
2019-05-05T23:31:56.381Z,3.00
2019-05-05T23:34:25.863Z,3.43
2019-05-05T23:36:55.268Z,3.90
2019-05-05T23:39:24.780Z,3.50
2019-05-05T23:41:54.784Z,3.30
2019-05-05T23:44:24.310Z,3.07
2019-05-05T23:46:54.029Z,4.00
2019-05-05T23:49:24.196Z,3.77
2019-05-05T23:51:54.278Z,3.53
2019-05-05T23:54:24.693Z,3.77
2019-05-05T23:56:54.506Z,4.03
2019-05-05T23:59:24.261Z,3.40
